Time,TemperatureF,DewpointF,PressureIn,WindDirection,WindDirectionDegrees,WindSpeedMPH,WindSpeedGustMPH,Humidity,HourlyPrecipIn,Conditions,Clouds,dailyrainin,SolarRadiationWatts/m^2,SoftwareType,DateUTC
2014-07-28 00:02:00,72.1,27.6,30.38,WNW,292,2.4,2.4,19,0.00,CLR,FEW,0.00,0.0,WeatherDisplay:10.37,2014-07-28 07:02:00,
2014-07-28 00:07:00,71.8,27.3,30.38,WNW,292,2.3,2.3,19,0.00,CLR,FEW,0.00,0.0,WeatherDisplay:10.37,2014-07-28 07:07:00,
2014-07-28 00:12:00,71.2,26.8,30.41,West,270,2.3,2.3,19,0.00,CLR,FEW,0.00,0.0,WeatherDisplay:10.37,2014-07-28 07:12:00,
2014-07-28 00:17:00,71.1,26.7,30.41,WSW,248,0.0,0.0,19,0.00,CLR,FEW,0.00,0.0,WeatherDisplay:10.37,2014-07-28 07:17:00,
2014-07-28 00:22:00,70.5,26.2,30.41,WSW,248,0.0,0.0,19,0.00,CLR,FEW,0.00,0.0,WeatherDisplay:10.37,2014-07-28 07:22:00,
2014-07-28 00:27:00,70.2,25.9,30.41,WSW,248,0.0,0.0,19,0.00,CLR,FEW,0.00,0.0,WeatherDisplay:10.37,2014-07-28 07:27:00,
2014-07-28 00:32:00,69.8,29.2,30.41,WNW,292,2.6,2.6,22,0.00,CLR,FEW,0.00,0.0,WeatherDisplay:10.37,2014-07-28 07:32:00,
2014-07-28 00:37:00,69.8,29.2,30.41,West,270,2.3,2.3,22,0.00,CLR,FEW,0.00,0.0,WeatherDisplay:10.37,2014-07-28 07:37:00,
2014-07-28 00:42:00,69.8,29.2,30.38,WSW,248,0.0,0.0,22,0.00,CLR,FEW,0.00,0.0,WeatherDisplay:10.37,2014-07-28 07:42:00,
2014-07-28 00:47:00,69.6,29.1,30.38,WSW,248,0.0,0.0,22,0.00,CLR,FEW,0.00,0.0,WeatherDisplay:10.37,2014-07-28 07:47:00,
2014-07-28 00:52:00,69.1,28.6,30.38,WSW,248,0.0,0.0,22,0.00,CLR,FEW,0.00,0.0,WeatherDisplay:10.37,2014-07-28 07:52:00,
2014-07-28 00:57:00,68.7,28.3,30.41,West,270,1.6,1.6,22,0.00,CLR,FEW,0.00,0.0,WeatherDisplay:10.37,2014-07-28 07:57:00,
2014-07-28 01:02:00,68.5,28.2,30.41,SW,225,1.2,0.0,22,0.00,CLR,FEW,0.00,0.0,WeatherDisplay:10.37,2014-07-28 08:02:00,
2014-07-28 01:07:00,68.7,28.3,30.41,WSW,248,3.5,3.5,22,0.00,CLR,FEW,0.00,0.0,WeatherDisplay:10.37,2014-07-28 08:07:00,
2014-07-28 01:12:00,68.9,28.5,30.41,WSW,248,2.6,2.6,22,0.00,CLR,FEW,0.00,0.0,WeatherDisplay:10.37,2014-07-28 08:12:00,
2014-07-28 01:17:00,68.9,28.5,30.41,WSW,248,2.3,2.3,22,0.00,CLR,FEW,0.00,0.0,WeatherDisplay:10.37,2014-07-28 08:17:00,
2014-07-28 01:22:00,68.7,28.3,30.41,WNW,292,2.3,2.3,22,0.00,CLR,FEW,0.00,0.0,WeatherDisplay:10.37,2014-07-28 08:22:00,
2014-07-28 01:27:00,68.7,28.3,30.41,WSW,248,2.3,2.3,22,0.00,CLR,FEW,0.00,0.0,WeatherDisplay:10.37,2014-07-28 08:27:00,
2014-07-28 01:32:00,68.5,28.2,30.41,WSW,248,2.3,0.0,22,0.00,CLR,FEW,0.00,0.0,WeatherDisplay:10.37,2014-07-28 08:32:00,
2014-07-28 01:37:00,68.4,28.0,30.41,West,270,1.4,1.4,22,0.00,CLR,FEW,0.00,0.0,WeatherDisplay:10.37,2014-07-28 08:37:00,
2014-07-28 01:42:00,68.7,28.3,30.38,WSW,248,1.2,1.2,22,0.00,CLR,FEW,0.00,0.0,WeatherDisplay:10.37,2014-07-28 08:42:00,
2014-07-28 01:47:00,69.1,28.6,30.38,WNW,292,3.5,3.5,22,0.00,CLR,FEW,0.00,0.0,WeatherDisplay:10.37,2014-07-28 08:47:00,
2014-07-28 01:52:00,69.4,28.9,30.38,WNW,292,2.3,2.3,22,0.00,CLR,FEW,0.00,0.0,WeatherDisplay:10.37,2014-07-28 08:52:00,
2014-07-28 01:57:00,70.0,29.4,30.38,WNW,292,2.6,2.6,22,0.00,CLR,FEW,0.00,0.0,WeatherDisplay:10.37,2014-07-28 08:57:00,
2014-07-28 02:02:00,70.3,29.7,30.38,West,270,2.9,2.9,22,0.00,CLR,FEW,0.00,0.0,WeatherDisplay:10.37,2014-07-28 09:02:00,
2014-07-28 02:07:00,70.5,26.2,30.38,West,270,2.3,2.3,19,0.00,CLR,FEW,0.00,0.0,WeatherDisplay:10.37,2014-07-28 09:07:00,
2014-07-28 02:12:00,70.5,29.8,30.38,SE,135,0.0,0.0,22,0.00,CLR,FEW,0.00,0.0,WeatherDisplay:10.37,2014-07-28 09:12:00,
2014-07-28 02:17:00,70.0,25.8,30.38,SSE,158,0.0,0.0,19,0.00,CLR,FEW,0.00,0.0,WeatherDisplay:10.37,2014-07-28 09:17:00,
2014-07-28 02:22:00,69.4,28.9,30.38,South,180,0.0,0.0,22,0.00,CLR,FEW,0.00,0.0,WeatherDisplay:10.37,2014-07-28 09:22:00,
2014-07-28 02:27:00,68.4,28.0,30.38,WNW,292,1.6,1.6,22,0.00,CLR,FEW,0.00,0.0,WeatherDisplay:10.37,2014-07-28 09:27:00,
2014-07-28 02:32:00,68.2,27.9,30.38,WSW,248,2.3,2.4,22,0.00,CLR,FEW,0.00,0.0,WeatherDisplay:10.37,2014-07-28 09:32:00,
2014-07-28 02:37:00,67.6,27.4,30.38,West,270,2.3,0.0,22,0.00,CLR,FEW,0.00,0.0,WeatherDisplay:10.37,2014-07-28 09:37:00,
2014-07-28 02:42:00,67.3,28.2,30.38,West,270,3.6,3.6,23,0.00,CLR,FEW,0.00,0.0,WeatherDisplay:10.37,2014-07-28 09:42:00,
2014-07-28 02:47:00,67.3,27.1,30.38,West,270,0.0,0.0,22,0.00,CLR,FEW,0.00,0.0,WeatherDisplay:10.37,2014-07-28 09:47:00,
2014-07-28 02:52:00,66.9,27.9,30.38,West,270,1.2,0.0,23,0.00,CLR,FEW,0.00,0.0,WeatherDisplay:10.37,2014-07-28 09:52:00,
2014-07-28 02:57:00,66.4,27.4,30.38,West,270,0.0,0.0,23,0.00,CLR,FEW,0.00,0.0,WeatherDisplay:10.37,2014-07-28 09:57:00,
2014-07-28 03:02:00,66.2,27.3,30.38,WSW,248,2.3,2.3,23,0.00,CLR,FEW,0.00,0.0,WeatherDisplay:10.37,2014-07-28 10:02:00,
2014-07-28 03:07:00,65.8,27.0,30.38,WSW,248,0.0,0.0,23,0.00,CLR,FEW,0.00,0.0,WeatherDisplay:10.37,2014-07-28 10:07:00,
2014-07-28 03:12:00,65.5,26.7,30.41,WSW,248,1.4,1.6,23,0.00,CLR,FEW,0.00,0.0,WeatherDisplay:10.37,2014-07-28 10:12:00,
2014-07-28 03:17:00,65.5,26.7,30.41,WNW,292,2.3,2.3,23,0.00,CLR,FEW,0.00,0.0,WeatherDisplay:10.37,2014-07-28 10:17:00,
2014-07-28 03:22:00,65.1,27.4,30.41,WSW,248,2.3,2.4,24,0.00,CLR,FEW,0.00,0.0,WeatherDisplay:10.37,2014-07-28 10:22:00,
2014-07-28 03:27:00,65.3,26.5,30.41,WSW,252,2.0,3.0,23,0.00,CLR,FEW,0.00,0.0,WeatherDisplay:10.37,2014-07-28 10:27:00,
2014-07-28 03:32:00,65.8,27.0,30.41,WSW,248,2.3,2.4,23,0.00,CLR,FEW,0.00,0.0,WeatherDisplay:10.37,2014-07-28 10:32:00,
2014-07-28 03:37:00,65.8,27.0,30.41,WSW,248,2.3,2.3,23,0.00,CLR,FEW,0.00,0.0,WeatherDisplay:10.37,2014-07-28 10:37:00,
2014-07-28 03:42:00,65.8,27.0,30.38,WSW,248,1.2,1.2,23,0.00,CLR,FEW,0.00,0.0,WeatherDisplay:10.37,2014-07-28 10:42:00,
2014-07-28 03:47:00,65.7,26.8,30.38,West,270,1.2,1.2,23,0.00,CLR,FEW,0.00,0.0,WeatherDisplay:10.37,2014-07-28 10:47:00,
2014-07-28 03:52:00,65.5,26.7,30.38,West,270,0.0,0.0,23,0.00,CLR,FEW,0.00,0.0,WeatherDisplay:10.37,2014-07-28 10:52:00,
2014-07-28 03:57:00,65.3,26.5,30.38,West,270,0.0,0.0,23,0.00,CLR,FEW,0.00,0.0,WeatherDisplay:10.37,2014-07-28 10:57:00,
2014-07-28 04:02:00,64.8,26.1,30.38,West,270,0.0,0.0,23,0.00,CLR,FEW,0.00,0.0,WeatherDisplay:10.37,2014-07-28 11:02:00,
2014-07-28 04:07:00,64.4,25.8,30.38,WSW,248,0.0,0.0,23,0.00,CLR,FEW,0.00,0.0,WeatherDisplay:10.37,2014-07-28 11:07:00,
2014-07-28 04:12:00,64.2,26.6,30.38,WNW,292,2.4,2.6,24,0.00,CLR,FEW,0.00,0.0,WeatherDisplay:10.37,2014-07-28 11:12:00,
2014-07-28 04:17:00,64.2,26.6,30.38,WSW,248,2.3,2.4,24,0.00,CLR,FEW,0.00,0.0,WeatherDisplay:10.37,2014-07-28 11:17:00,
2014-07-28 04:22:00,64.0,26.5,30.38,WSW,248,0.0,0.0,24,0.00,CLR,FEW,0.00,0.0,WeatherDisplay:10.37,2014-07-28 11:22:00,
2014-07-28 04:27:00,63.5,26.0,30.38,West,270,0.0,0.0,24,0.00,CLR,FEW,0.00,0.0,WeatherDisplay:10.37,2014-07-28 11:27:00,
2014-07-28 04:32:00,63.3,25.9,30.38,West,270,2.3,2.3,24,0.00,CLR,FEW,0.00,0.0,WeatherDisplay:10.37,2014-07-28 11:32:00,
2014-07-28 04:37:00,63.3,25.9,30.38,West,270,2.3,2.3,24,0.00,CLR,FEW,0.00,0.0,WeatherDisplay:10.37,2014-07-28 11:37:00,
2014-07-28 04:42:00,63.1,25.7,30.38,West,270,2.3,2.3,24,0.00,CLR,FEW,0.00,0.0,WeatherDisplay:10.37,2014-07-28 11:42:00,
2014-07-28 04:47:00,63.0,25.6,30.38,West,270,1.2,1.4,24,0.00,CLR,FEW,0.00,0.0,WeatherDisplay:10.37,2014-07-28 11:47:00,
2014-07-28 04:52:00,63.0,25.6,30.38,WSW,248,2.3,2.3,24,0.00,CLR,FEW,0.00,0.0,WeatherDisplay:10.37,2014-07-28 11:52:00,
2014-07-28 04:57:00,63.0,25.6,30.38,West,270,2.3,2.3,24,0.00,CLR,FEW,0.00,0.0,WeatherDisplay:10.37,2014-07-28 11:57:00,
2014-07-28 05:02:00,62.8,25.4,30.38,West,270,2.3,2.3,24,0.00,CLR,FEW,0.00,0.0,WeatherDisplay:10.37,2014-07-28 12:02:00,
2014-07-28 05:07:00,62.6,26.2,30.38,West,270,2.3,2.3,25,0.00,CLR,FEW,0.00,0.0,WeatherDisplay:10.37,2014-07-28 12:07:00,
2014-07-28 05:12:00,62.4,26.1,30.38,West,270,1.2,1.4,25,0.00,CLR,FEW,0.00,0.0,WeatherDisplay:10.37,2014-07-28 12:12:00,
2014-07-28 05:42:00,63.5,27.0,30.41,WNW,292,3.5,3.5,25,0.00,OVC,FEW,0.00,0.0,WeatherDisplay:10.37,2014-07-28 12:42:00,
2014-07-28 05:47:00,63.7,27.2,30.41,WNW,292,2.3,2.3,25,0.00,OVC,FEW,0.00,0.0,WeatherDisplay:10.37,2014-07-28 12:47:00,
2014-07-28 05:52:00,63.7,27.1,30.41,WNW,292,0.0,3.0,25,0.00,OVC,FEW,0.00,0.0,WeatherDisplay:10.37,2014-07-28 12:52:00,
2014-07-28 05:57:00,63.7,27.2,30.41,West,270,2.4,2.4,25,0.00,OVC,FEW,0.00,0.0,WeatherDisplay:10.37,2014-07-28 12:57:00,
2014-07-28 06:02:00,63.5,26.0,30.41,West,270,1.2,0.0,24,0.00,OVC,FEW,0.00,0.0,WeatherDisplay:10.37,2014-07-28 13:02:00,
2014-07-28 06:07:00,63.5,26.0,30.41,West,270,0.0,0.0,24,0.00,OVC,FEW,0.00,0.0,WeatherDisplay:10.37,2014-07-28 13:07:00,
2014-07-28 06:12:00,63.5,26.0,30.41,West,270,3.5,3.5,24,0.00,OVC,FEW,0.00,0.0,WeatherDisplay:10.37,2014-07-28 13:12:00,
2014-07-28 06:17:00,63.5,26.0,30.41,WSW,248,3.5,3.5,24,0.00,OVC,FEW,0.00,0.0,WeatherDisplay:10.37,2014-07-28 13:17:00,
2014-07-28 06:22:00,63.1,26.7,30.41,WSW,248,0.0,0.0,25,0.00,OVC,FEW,0.00,0.0,WeatherDisplay:10.37,2014-07-28 13:22:00,
2014-07-28 06:27:00,63.0,26.6,30.41,WSW,248,0.0,0.0,25,0.00,OVC,FEW,0.00,0.0,WeatherDisplay:10.37,2014-07-28 13:27:00,
2014-07-28 06:32:00,62.6,26.2,30.41,West,270,2.3,2.3,25,0.00,OVC,FEW,0.00,0.0,WeatherDisplay:10.37,2014-07-28 13:32:00,
2014-07-28 06:37:00,63.7,27.2,30.41,WSW,248,3.5,3.5,25,0.00,OVC,FEW,0.00,0.0,WeatherDisplay:10.37,2014-07-28 13:37:00,
2014-07-28 06:42:00,64.2,27.6,30.41,WSW,248,2.3,2.3,25,0.00,OVC,FEW,0.00,0.0,WeatherDisplay:10.37,2014-07-28 13:42:00,
2014-07-28 06:47:00,64.8,28.1,30.41,WSW,248,0.0,0.0,25,0.00,OVC,FEW,0.00,0.0,WeatherDisplay:10.37,2014-07-28 13:47:00,
2014-07-28 06:52:00,64.9,28.2,30.41,WSW,248,0.0,0.0,25,0.00,OVC,FEW,0.00,100.0,WeatherDisplay:10.37,2014-07-28 13:52:00,
2014-07-28 06:57:00,65.3,28.5,30.44,WSW,248,0.0,0.0,25,0.00,OVC,FEW,0.00,100.0,WeatherDisplay:10.37,2014-07-28 13:57:00,
2014-07-28 07:02:00,65.7,28.8,30.44,WNW,292,0.0,0.0,25,0.00,OVC,FEW,0.00,100.0,WeatherDisplay:10.37,2014-07-28 14:02:00,
2014-07-28 07:07:00,66.2,29.3,30.44,SSE,158,0.0,0.0,25,0.00,OVC,FEW,0.00,100.0,WeatherDisplay:10.37,2014-07-28 14:07:00,
2014-07-28 07:12:00,66.4,30.4,30.44,SSE,158,0.0,0.0,26,0.00,OVC,FEW,0.00,100.0,WeatherDisplay:10.37,2014-07-28 14:12:00,
2014-07-28 07:17:00,66.2,33.0,30.44,WNW,292,1.2,1.6,29,0.00,OVC,FEW,0.00,100.0,WeatherDisplay:10.37,2014-07-28 14:17:00,
2014-07-28 07:22:00,66.4,32.3,30.44,West,270,0.0,0.0,28,0.00,OVC,FEW,0.00,100.0,WeatherDisplay:10.37,2014-07-28 14:22:00,
2014-07-28 07:27:00,66.4,31.4,30.44,West,270,0.0,0.0,27,0.00,OVC,FEW,0.00,100.0,WeatherDisplay:10.37,2014-07-28 14:27:00,
2014-07-28 07:32:00,66.4,31.4,30.44,West,270,0.0,0.0,27,0.00,OVC,FEW,0.00,200.0,WeatherDisplay:10.37,2014-07-28 14:32:00,
2014-07-28 07:37:00,66.4,31.4,30.44,West,270,0.0,0.0,27,0.00,OVC,FEW,0.00,200.0,WeatherDisplay:10.37,2014-07-28 14:37:00,
2014-07-28 07:42:00,66.4,31.4,30.44,South,180,0.0,0.0,27,0.00,OVC,FEW,0.00,200.0,WeatherDisplay:10.37,2014-07-28 14:42:00,
2014-07-28 07:47:00,66.4,31.4,30.44,SSE,158,0.0,0.0,27,0.00,OVC,FEW,0.00,200.0,WeatherDisplay:10.37,2014-07-28 14:47:00,
2014-07-28 07:52:00,70.5,33.0,30.44,SSE,158,0.0,0.0,25,0.00,OVC,FEW,0.00,200.0,WeatherDisplay:10.37,2014-07-28 14:52:00,
2014-07-28 07:57:00,71.1,33.4,30.44,SSE,158,0.0,0.0,25,0.00,OVC,FEW,0.00,200.0,WeatherDisplay:10.37,2014-07-28 14:57:00,
2014-07-28 08:02:00,71.8,33.0,30.44,ESE,112,3.5,3.5,24,0.00,OVC,FEW,0.00,200.0,WeatherDisplay:10.37,2014-07-28 15:02:00,
2014-07-28 08:07:00,72.5,32.6,30.44,SSE,158,2.3,2.3,23,0.00,OVC,FEW,0.00,300.0,WeatherDisplay:10.37,2014-07-28 15:07:00,
2014-07-28 08:12:00,72.9,32.9,30.44,SE,135,2.3,2.3,23,0.00,OVC,FEW,0.00,300.0,WeatherDisplay:10.37,2014-07-28 15:12:00,
2014-07-28 08:17:00,73.0,31.9,30.44,SSE,158,1.2,1.2,22,0.00,BKN,FEW,0.00,300.0,WeatherDisplay:10.37,2014-07-28 15:17:00,
2014-07-28 08:22:00,73.6,32.4,30.44,ESE,112,0.0,0.0,22,0.00,BKN,FEW,0.00,400.0,WeatherDisplay:10.37,2014-07-28 15:22:00,
2014-07-28 08:27:00,74.7,33.3,30.44,North,0,2.3,2.3,22,0.00,BKN,FEW,0.00,400.0,WeatherDisplay:10.37,2014-07-28 15:27:00,
2014-07-28 08:32:00,74.7,33.3,30.44,NNE,22,2.3,0.0,22,0.00,SCT,FEW,0.00,400.0,WeatherDisplay:10.37,2014-07-28 15:32:00,
2014-07-28 08:37:00,74.7,33.3,30.44,East,90,2.3,2.3,22,0.00,SCT,FEW,0.00,400.0,WeatherDisplay:10.37,2014-07-28 15:37:00,
2014-07-28 08:42:00,74.7,33.3,30.44,ENE,68,1.2,0.0,22,0.00,SCT,FEW,0.00,400.0,WeatherDisplay:10.37,2014-07-28 15:42:00,
2014-07-28 08:47:00,77.4,34.4,30.44,ENE,68,3.5,3.5,21,0.00,SCT,FEW,0.00,400.0,WeatherDisplay:10.37,2014-07-28 15:47:00,
2014-07-28 08:52:00,77.9,34.8,30.44,ESE,112,1.6,1.6,21,0.00,FEW,,0.00,500.0,WeatherDisplay:10.37,2014-07-28 15:52:00,
2014-07-28 08:57:00,77.9,33.6,30.44,ESE,112,2.4,2.4,20,0.00,CLR,FEW,0.00,600.0,WeatherDisplay:10.37,2014-07-28 15:57:00,
2014-07-28 09:02:00,78.4,34.0,30.44,ENE,68,2.4,2.4,20,0.00,CLR,FEW,0.00,700.0,WeatherDisplay:10.37,2014-07-28 16:02:00,
2014-07-28 09:07:00,78.6,34.2,30.44,ESE,112,2.3,2.3,20,0.00,CLR,FEW,0.00,800.0,WeatherDisplay:10.37,2014-07-28 16:07:00,
2014-07-28 09:12:00,79.2,34.6,30.44,SSE,158,1.4,1.4,20,0.00,CLR,FEW,0.00,800.0,WeatherDisplay:10.37,2014-07-28 16:12:00,
2014-07-28 09:17:00,79.2,34.6,30.44,SSE,158,2.6,2.6,20,0.00,CLR,FEW,0.00,900.0,WeatherDisplay:10.37,2014-07-28 16:17:00,
2014-07-28 09:22:00,79.3,34.8,30.44,ESE,112,0.0,0.0,20,0.00,CLR,FEW,0.00,800.0,WeatherDisplay:10.37,2014-07-28 16:22:00,
2014-07-28 09:27:00,79.7,35.1,30.44,SSE,158,2.3,2.3,20,0.00,CLR,FEW,0.00,900.0,WeatherDisplay:10.37,2014-07-28 16:27:00,
2014-07-28 09:32:00,79.9,35.2,30.44,ESE,112,1.4,1.6,20,0.00,CLR,FEW,0.00,900.0,WeatherDisplay:10.37,2014-07-28 16:32:00,
2014-07-28 09:37:00,80.2,35.5,30.44,East,90,2.3,2.3,20,0.00,CLR,FEW,0.00,900.0,WeatherDisplay:10.37,2014-07-28 16:37:00,
2014-07-28 09:42:00,81.1,35.0,30.44,East,90,0.0,0.0,19,0.00,CLR,FEW,0.00,1100.0,WeatherDisplay:10.37,2014-07-28 16:42:00,
2014-07-28 09:47:00,81.7,35.4,30.44,SSE,158,4.6,4.6,19,0.00,CLR,FEW,0.00,1200.0,WeatherDisplay:10.37,2014-07-28 16:47:00,
2014-07-28 09:52:00,81.5,32.5,30.44,ESE,112,3.5,3.5,17,0.00,CLR,FEW,0.00,1200.0,WeatherDisplay:10.37,2014-07-28 16:52:00,
2014-07-28 09:57:00,81.7,32.6,30.44,SSE,158,2.3,2.3,17,0.00,CLR,FEW,0.00,1200.0,WeatherDisplay:10.37,2014-07-28 16:57:00,
2014-07-28 10:02:00,82.0,32.9,30.44,SSE,158,3.5,3.5,17,0.00,CLR,FEW,0.00,1200.0,WeatherDisplay:10.37,2014-07-28 17:02:00,
2014-07-28 10:07:00,82.0,32.9,30.44,ESE,112,2.3,2.3,17,0.00,CLR,FEW,0.00,1400.0,WeatherDisplay:10.37,2014-07-28 17:07:00,
2014-07-28 10:12:00,82.4,31.7,30.44,SE,132,2.0,3.0,16,0.00,CLR,FEW,0.00,1400.0,WeatherDisplay:10.37,2014-07-28 17:12:00,
2014-07-28 10:17:00,83.0,32.1,30.44,SE,134,1.0,5.0,16,0.00,CLR,FEW,0.00,1300.0,WeatherDisplay:10.37,2014-07-28 17:17:00,
2014-07-28 10:22:00,83.3,32.4,30.44,NNE,22,3.5,3.5,16,0.00,CLR,FEW,0.00,1300.0,WeatherDisplay:10.37,2014-07-28 17:22:00,
2014-07-28 10:27:00,83.8,32.8,30.44,SSE,158,3.5,3.5,16,0.00,CLR,FEW,0.00,1300.0,WeatherDisplay:10.37,2014-07-28 17:27:00,
2014-07-28 10:32:00,84.2,33.1,30.44,East,90,3.5,3.5,16,0.00,CLR,FEW,0.00,1500.0,WeatherDisplay:10.37,2014-07-28 17:32:00,
2014-07-28 10:37:00,84.2,33.1,30.44,NE,45,4.6,4.6,16,0.00,CLR,FEW,0.00,1600.0,WeatherDisplay:10.37,2014-07-28 17:37:00,
2014-07-28 10:42:00,84.7,33.6,30.44,SSE,158,2.4,2.4,16,0.00,CLR,FEW,0.00,1600.0,WeatherDisplay:10.37,2014-07-28 17:42:00,
2014-07-28 10:47:00,84.9,33.7,30.44,NE,45,2.3,2.3,16,0.00,CLR,FEW,0.00,1600.0,WeatherDisplay:10.37,2014-07-28 17:47:00,
2014-07-28 10:52:00,86.0,34.6,30.44,ESE,112,2.3,2.3,16,0.00,CLR,FEW,0.00,1600.0,WeatherDisplay:10.37,2014-07-28 17:52:00,
2014-07-28 10:57:00,86.4,34.9,30.44,SSE,158,2.3,2.3,16,0.00,CLR,FEW,0.00,1600.0,WeatherDisplay:10.37,2014-07-28 17:57:00,
2014-07-28 11:02:00,86.5,35.0,30.44,ESE,112,3.5,3.5,16,0.00,CLR,FEW,0.00,1600.0,WeatherDisplay:10.37,2014-07-28 18:02:00,
2014-07-28 11:07:00,86.9,35.3,30.44,SSE,158,2.3,2.3,16,0.00,CLR,FEW,0.00,1600.0,WeatherDisplay:10.37,2014-07-28 18:07:00,
2014-07-28 11:12:00,87.1,35.4,30.44,ESE,112,3.3,3.3,16,0.00,CLR,FEW,0.00,1600.0,WeatherDisplay:10.37,2014-07-28 18:12:00,
2014-07-28 11:17:00,87.1,35.4,30.44,ENE,68,3.5,3.6,16,0.00,CLR,FEW,0.00,1600.0,WeatherDisplay:10.37,2014-07-28 18:17:00,
2014-07-28 11:22:00,87.6,35.9,30.44,SSE,158,2.9,2.9,16,0.00,CLR,FEW,0.00,1600.0,WeatherDisplay:10.37,2014-07-28 18:22:00,
2014-07-28 11:27:00,87.6,35.9,30.41,SSE,158,3.5,3.5,16,0.00,CLR,FEW,0.00,1600.0,WeatherDisplay:10.37,2014-07-28 18:27:00,
2014-07-28 11:32:00,87.6,35.9,30.41,East,90,2.4,2.4,16,0.00,CLR,FEW,0.00,1600.0,WeatherDisplay:10.37,2014-07-28 18:32:00,
2014-07-28 11:37:00,87.8,34.4,30.41,SE,135,4.3,4.3,15,0.00,CLR,FEW,0.00,1600.0,WeatherDisplay:10.37,2014-07-28 18:37:00,
2014-07-28 11:42:00,87.6,35.9,30.44,SSE,158,3.5,3.5,16,0.00,CLR,FEW,0.00,1600.0,WeatherDisplay:10.37,2014-07-28 18:42:00,
2014-07-28 11:47:00,87.8,34.4,30.44,East,90,3.5,3.5,15,0.00,CLR,FEW,0.00,1600.0,WeatherDisplay:10.37,2014-07-28 18:47:00,